Time;durP1;ratioP1;P1;durP2;ratioP2;P2;SDS_P1;SDS_P2;PMS_P1;PMS_P2;Temp;Humidity;BMP_temperature;BMP_pressure;BME280_temperature;BME280_humidity;BME280_pressure;Samples;Min_cycle;Max_cycle;Signal;HPM_P1;HPM_P2
2022/07/14 00:01:06;;;;;;;4.55;3.30;;;22.30;76.00;;;;;;1860237;77;21017;-61
2022/07/14 00:03:36;;;;;;;12.93;4.22;;;22.20;75.90;;;;;;1860212;77;21371;-61
2022/07/14 00:06:05;;;;;;;4.90;3.95;;;22.10;76.30;;;;;;1860341;77;21029;-61
2022/07/14 00:08:35;;;;;;;6.25;3.52;;;22.00;76.30;;;;;;1860227;77;21001;-61
2022/07/14 00:11:05;;;;;;;4.78;3.72;;;21.90;76.40;;;;;;1860208;77;21045;-61
2022/07/14 00:13:34;;;;;;;5.90;3.27;;;21.80;76.60;;;;;;1860258;77;21049;-61
2022/07/14 00:16:04;;;;;;;3.70;3.40;;;21.70;76.90;;;;;;1860314;77;21050;-61
2022/07/14 00:18:33;;;;;;;5.83;3.85;;;21.70;77.40;;;;;;1860303;77;21073;-61
2022/07/14 00:21:03;;;;;;;4.87;3.70;;;21.70;77.50;;;;;;1860274;77;21115;-61
2022/07/14 00:23:32;;;;;;;5.62;3.65;;;21.70;77.60;;;;;;1860274;77;21112;-61
2022/07/14 00:26:03;;;;;;;4.65;3.42;;;21.70;77.90;;;;;;1860174;77;21041;-61
2022/07/14 00:28:32;;;;;;;4.85;3.10;;;21.70;78.10;;;;;;1860309;77;21496;-61
2022/07/14 00:31:03;;;;;;;3.62;3.33;;;21.70;78.00;;;;;;1860183;77;21219;-61
2022/07/14 00:33:33;;;;;;;5.05;3.50;;;21.80;78.10;;;;;;1860397;77;21507;-61
2022/07/14 00:36:03;;;;;;;5.53;3.35;;;21.80;78.30;;;;;;1860178;77;21058;-61
2022/07/14 00:38:32;;;;;;;5.22;3.17;;;21.90;78.40;;;;;;1860344;77;21057;-61
2022/07/14 00:41:01;;;;;;;4.47;2.90;;;21.90;78.30;;;;;;1860178;77;21119;-61
2022/07/14 00:43:31;;;;;;;3.85;3.17;;;21.90;78.20;;;;;;1860150;76;21084;-61
2022/07/14 00:46:02;;;;;;;5.97;3.30;;;21.90;78.00;;;;;;1860331;77;21464;-61
2022/07/14 00:48:31;;;;;;;6.40;3.85;;;22.00;78.10;;;;;;1860187;77;21108;-61
2022/07/14 00:51:01;;;;;;;5.00;3.00;;;22.00;78.10;;;;;;1860174;77;21065;-61
2022/07/14 00:53:30;;;;;;;4.03;3.20;;;22.00;78.00;;;;;;1860199;77;21045;-61
2022/07/14 00:55:59;;;;;;;4.95;3.17;;;22.10;77.60;;;;;;1860140;77;21427;-61
2022/07/14 00:58:29;;;;;;;5.00;2.87;;;22.00;77.30;;;;;;1860358;77;21017;-61
2022/07/14 01:00:59;;;;;;;4.22;2.92;;;22.00;77.30;;;;;;1860296;77;21127;-61
2022/07/14 01:03:28;;;;;;;4.42;2.70;;;21.90;77.20;;;;;;1860190;77;21006;-61
2022/07/14 01:05:57;;;;;;;3.80;2.75;;;21.90;77.10;;;;;;1860163;77;21053;-61
2022/07/14 01:08:27;;;;;;;4.65;3.10;;;21.90;77.00;;;;;;1860267;77;21088;-61
2022/07/14 01:10:56;;;;;;;4.35;2.70;;;21.80;76.90;;;;;;1860267;77;21006;-61
2022/07/14 01:13:26;;;;;;;4.72;2.80;;;21.80;76.70;;;;;;1860213;77;21119;-61
2022/07/14 01:15:55;;;;;;;5.35;2.60;;;21.80;76.70;;;;;;1860147;77;21099;-61
2022/07/14 01:18:24;;;;;;;11.18;3.17;;;21.70;76.40;;;;;;1860284;77;21029;-61
2022/07/14 01:20:53;;;;;;;3.98;2.90;;;21.70;76.40;;;;;;1860225;77;21511;-61
2022/07/14 01:23:23;;;;;;;4.15;3.85;;;21.70;76.30;;;;;;1860213;77;21151;-60
2022/07/14 01:25:52;;;;;;;4.65;2.98;;;21.70;76.10;;;;;;1860136;77;21096;-61
2022/07/14 01:28:22;;;;;;;7.25;2.98;;;21.70;75.80;;;;;;1824566;77;21069;-60
2022/07/14 01:30:51;;;;;;;4.30;2.55;;;21.70;75.70;;;;;;1860186;77;21096;-61
2022/07/14 01:33:20;;;;;;;3.12;2.83;;;21.70;75.70;;;;;;1860157;77;21104;-61
2022/07/14 01:35:50;;;;;;;4.03;2.70;;;21.70;75.40;;;;;;1860105;77;21009;-61
2022/07/14 01:38:21;;;;;;;3.20;2.45;;;21.60;75.50;;;;;;1824478;77;21448;-61
2022/07/14 01:40:50;;;;;;;3.95;2.65;;;21.70;75.70;;;;;;1860132;77;21041;-60
2022/07/14 01:43:20;;;;;;;5.92;2.72;;;21.70;75.80;;;;;;1865251;76;21159;-61
2022/07/14 01:45:50;;;;;;;3.35;2.72;;;21.70;75.50;;;;;;1868516;77;21044;-61
2022/07/14 01:48:19;;;;;;;5.67;2.77;;;21.80;75.40;;;;;;1868773;77;21118;-61
2022/07/14 01:50:49;;;;;;;3.00;2.70;;;21.80;75.00;;;;;;1868750;77;21005;-61
2022/07/14 01:53:20;;;;;;;6.03;3.00;;;21.80;75.10;;;;;;1868607;77;21053;-61
2022/07/14 01:55:49;;;;;;;3.17;2.87;;;21.80;75.10;;;;;;1868541;77;21527;-61
2022/07/14 01:58:19;;;;;;;3.98;2.95;;;21.80;75.10;;;;;;1868691;77;21029;-61
2022/07/14 02:01:39;;;;;;;8.63;3.67;;;21.80;75.10;;;;;;1868671;77;21033;-61
2022/07/14 02:03:19;;;;;;;2.60;2.40;;;21.80;75.10;;;;;;1864059;76;21033;-61
2022/07/14 02:05:49;;;;;;;4.20;2.72;;;21.80;75.40;;;;;;1868602;77;21037;-61
2022/07/14 02:08:18;;;;;;;8.60;2.70;;;21.80;75.60;;;;;;1868578;77;21056;-61
2022/07/14 02:13:35;;;;;;;4.65;2.62;;;21.90;75.20;;;;;;1868643;77;21029;-61
2022/07/14 02:16:05;;;;;;;5.30;2.80;;;22.00;75.10;;;;;;1868724;77;21162;-61
2022/07/14 02:18:34;;;;;;;6.17;3.17;;;22.00;74.80;;;;;;1868784;77;21045;-61
2022/07/14 02:21:03;;;;;;;3.77;3.00;;;22.00;74.70;;;;;;1868798;77;21467;-61
2022/07/14 02:23:33;;;;;;;3.60;3.30;;;22.00;74.40;;;;;;1868677;77;21099;-61
2022/07/14 02:26:02;;;;;;;5.12;3.52;;;21.90;74.40;;;;;;1868759;77;21041;-61
2022/07/14 02:28:32;;;;;;;3.80;3.40;;;21.90;74.60;;;;;;1868711;77;21164;-61
2022/07/14 02:31:01;;;;;;;4.67;2.98;;;21.80;74.70;;;;;;1868675;77;21057;-61
2022/07/14 02:33:30;;;;;;;3.20;2.90;;;21.80;75.00;;;;;;1868716;76;21127;-61
2022/07/14 02:36:00;;;;;;;3.08;2.77;;;21.90;75.50;;;;;;1868724;77;21068;-61
2022/07/14 02:38:30;;;;;;;4.72;2.62;;;22.00;75.50;;;;;;1868748;77;21041;-61
2022/07/14 02:40:59;;;;;;;9.28;2.95;;;22.10;75.50;;;;;;1868748;77;21053;-61
2022/07/14 02:43:30;;;;;;;2.80;2.60;;;22.20;75.40;;;;;;1868702;76;21061;-61
2022/07/14 02:46:00;;;;;;;4.00;2.35;;;22.40;75.00;;;;;;1868678;77;21037;-61
2022/07/14 02:48:30;;;;;;;9.48;2.70;;;22.50;74.50;;;;;;1868712;77;21025;-61
2022/07/14 02:51:05;;;;;;;3.87;2.35;;;22.60;74.10;;;;;;1868742;77;21040;-61
2022/07/14 02:53:36;;;;;;;10.15;2.80;;;22.60;74.10;;;;;;1868118;76;21116;-61
2022/07/14 02:56:06;;;;;;;5.15;2.40;;;22.70;74.40;;;;;;1868720;77;21025;-61
2022/07/14 02:58:36;;;;;;;5.92;2.60;;;22.70;74.60;;;;;;1868701;75;21049;-61
2022/07/14 03:01:06;;;;;;;4.33;2.70;;;22.80;74.50;;;;;;1868855;77;21068;-61
2022/07/14 03:03:37;;;;;;;3.85;2.50;;;22.80;74.50;;;;;;1868787;77;21052;-61
2022/07/14 03:06:18;;;;;;;7.15;3.17;;;22.80;74.70;;;;;;1868738;77;21098;-61
2022/07/14 03:08:49;;;;;;;7.10;2.87;;;22.80;74.70;;;;;;1868265;77;21060;-61
2022/07/14 03:11:18;;;;;;;5.92;3.12;;;22.80;74.70;;;;;;1868643;77;21053;-61
2022/07/14 03:13:48;;;;;;;5.12;2.72;;;22.70;74.60;;;;;;1868799;76;21061;-61
2022/07/14 03:16:19;;;;;;;2.83;2.60;;;22.70;74.90;;;;;;1868670;77;21163;-61
2022/07/14 03:18:50;;;;;;;4.22;2.72;;;22.70;75.20;;;;;;1868442;77;21131;-61
2022/07/14 03:21:19;;;;;;;3.02;2.50;;;22.60;75.20;;;;;;1868780;77;21049;-61
2022/07/14 03:23:50;;;;;;;4.80;2.62;;;22.60;75.40;;;;;;1868639;77;21048;-61
2022/07/14 03:26:21;;;;;;;7.47;3.45;;;22.50;75.40;;;;;;1868249;77;21044;-61
2022/07/14 03:28:51;;;;;;;4.03;2.47;;;22.50;75.50;;;;;;1868752;77;21123;-61
2022/07/14 03:31:20;;;;;;;5.47;3.40;;;22.40;75.90;;;;;;1868837;77;21034;-61
2022/07/14 03:33:50;;;;;;;7.83;3.10;;;22.40;76.10;;;;;;1868709;77;21115;-61
2022/07/14 03:36:21;;;;;;;9.35;3.35;;;22.30;76.20;;;;;;1868816;77;21135;-61
2022/07/14 03:39:03;;;;;;;12.40;3.42;;;22.30;76.30;;;;;;1868742;77;21119;-61
2022/07/14 03:41:39;;;;;;;5.25;3.20;;;22.30;76.40;;;;;;1854298;75;21100;-61
2022/07/14 03:44:10;;;;;;;7.15;3.27;;;22.40;76.30;;;;;;1856312;77;21160;-61
2022/07/14 03:46:39;;;;;;;8.18;2.80;;;22.50;76.20;;;;;;1856136;77;21124;-61
2022/07/14 03:49:10;;;;;;;5.10;2.95;;;22.60;76.10;;;;;;1855318;77;21147;-61
2022/07/14 03:51:44;;;;;;;4.87;2.72;;;22.70;76.00;;;;;;1856146;77;21120;-61
2022/07/14 03:54:15;;;;;;;3.10;2.60;;;22.80;75.90;;;;;;1855752;76;21109;-62
2022/07/14 03:56:52;;;;;;;3.67;2.35;;;23.00;75.70;;;;;;1856034;77;21046;-62
2022/07/14 03:59:40;;;;;;;3.00;2.10;;;23.10;75.30;;;;;;1960797;73;21061;-61
2022/07/14 04:02:10;;;;;;;5.70;2.33;;;23.20;75.00;;;;;;1964409;73;21037;-62
2022/07/14 04:04:40;;;;;;;15.38;3.33;;;23.30;74.70;;;;;;1968570;73;21050;-61
2022/07/14 04:07:09;;;;;;;5.15;1.98;;;23.40;74.50;;;;;;1968411;73;21018;-61
2022/07/14 04:09:39;;;;;;;6.90;2.40;;;23.50;74.20;;;;;;1968407;73;21037;-61
2022/07/14 04:12:09;;;;;;;2.55;1.85;;;23.60;73.90;;;;;;1968416;73;21018;-61
2022/07/14 04:14:38;;;;;;;3.37;2.10;;;23.70;73.60;;;;;;1968391;73;21087;-61
2022/07/14 04:17:08;;;;;;;4.95;2.15;;;23.70;73.50;;;;;;1968305;73;21058;-61
2022/07/14 04:19:37;;;;;;;5.62;2.37;;;23.80;73.20;;;;;;1968313;73;21060;-61
2022/07/14 04:22:07;;;;;;;4.53;2.60;;;23.90;72.80;;;;;;1968321;73;20998;-61
2022/07/14 04:24:37;;;;;;;6.03;2.27;;;23.90;72.90;;;;;;1968295;73;21072;-61
2022/07/14 04:27:07;;;;;;;5.03;2.12;;;23.90;72.90;;;;;;1968420;73;21037;-61
2022/07/14 04:29:38;;;;;;;3.12;2.20;;;23.90;72.80;;;;;;1968262;73;21335;-62
2022/07/14 04:32:07;;;;;;;5.92;2.33;;;24.00;72.80;;;;;;1968297;73;21021;-61
2022/07/14 04:34:37;;;;;;;3.15;2.47;;;24.10;72.70;;;;;;1968339;73;21060;-61
2022/07/14 04:37:06;;;;;;;5.78;2.35;;;24.10;72.20;;;;;;1968284;73;21056;-62
2022/07/14 04:39:37;;;;;;;4.40;1.90;;;24.20;72.00;;;;;;1968459;73;21042;-61
2022/07/14 04:42:06;;;;;;;5.03;2.08;;;24.20;71.60;;;;;;1968292;73;21034;-62
2022/07/14 04:44:38;;;;;;;4.08;2.12;;;24.20;71.50;;;;;;1968417;73;21596;-61
2022/07/14 04:47:07;;;;;;;6.75;2.55;;;24.20;71.40;;;;;;1968212;73;21068;-61
2022/07/14 04:52:25;;;;;;;5.00;2.70;;;24.30;71.30;;;;;;1968319;73;21038;-61
2022/07/14 04:54:56;;;;;;;6.20;2.20;;;24.40;71.00;;;;;;1966442;73;21073;-61
2022/07/14 04:57:39;;;;;;;2.62;1.82;;;24.50;70.90;;;;;;1964128;73;21183;-61
2022/07/14 05:00:11;;;;;;;3.35;2.10;;;24.60;70.20;;;;;;1967949;73;21022;-61
2022/07/14 05:02:41;;;;;;;3.90;2.30;;;24.60;69.80;;;;;;1968114;73;21061;-61
2022/07/14 05:05:11;;;;;;;2.00;1.80;;;24.70;69.40;;;;;;1968425;73;21049;-61
2022/07/14 05:07:41;;;;;;;4.40;2.20;;;24.80;69.50;;;;;;1968367;73;21005;-62
2022/07/14 05:10:12;;;;;;;4.10;2.27;;;24.90;69.10;;;;;;1968012;73;21144;-62
2022/07/14 05:12:42;;;;;;;3.35;1.80;;;25.00;68.80;;;;;;1968134;73;21042;-62
2022/07/14 05:15:12;;;;;;;6.53;1.67;;;25.00;68.00;;;;;;1968413;73;21013;-61
2022/07/14 05:17:43;;;;;;;2.05;1.80;;;25.10;67.30;;;;;;1968413;73;21026;-61
2022/07/14 05:20:13;;;;;;;4.53;1.90;;;25.10;66.00;;;;;;1894947;72;21155;-61
2022/07/14 05:22:44;;;;;;;8.33;2.20;;;25.10;65.80;;;;;;1886236;76;21502;-61
2022/07/14 05:25:16;;;;;;;3.35;1.98;;;25.20;64.80;;;;;;1886293;76;21030;-61
2022/07/14 05:27:46;;;;;;;6.30;2.27;;;25.20;63.50;;;;;;1886348;76;21143;-61
2022/07/14 05:30:17;;;;;;;5.78;2.15;;;25.20;63.10;;;;;;1884595;75;21040;-61
2022/07/14 05:32:46;;;;;;;4.45;2.67;;;25.20;63.00;;;;;;1886289;76;21041;-61
2022/07/14 05:35:16;;;;;;;2.22;1.98;;;25.20;62.90;;;;;;1886418;75;21132;-61
2022/07/14 05:37:45;;;;;;;7.47;2.20;;;25.20;63.00;;;;;;1886304;76;21117;-61
2022/07/14 05:40:14;;;;;;;3.83;1.90;;;25.30;62.70;;;;;;1886184;76;21002;-61
2022/07/14 05:42:44;;;;;;;2.80;1.80;;;25.30;62.50;;;;;;1886251;76;21034;-61
2022/07/14 05:45:13;;;;;;;4.58;2.05;;;25.40;62.30;;;;;;1886326;76;20994;-61
2022/07/14 05:47:43;;;;;;;5.25;1.72;;;25.50;62.10;;;;;;1886164;75;21106;-61
2022/07/14 05:50:12;;;;;;;4.60;1.72;;;25.60;62.10;;;;;;1886195;76;21033;-61
2022/07/14 05:52:43;;;;;;;6.75;2.10;;;25.80;61.30;;;;;;1886343;76;21111;-61
2022/07/14 05:55:12;;;;;;;2.42;1.62;;;25.80;61.00;;;;;;1886222;76;21042;-61
2022/07/14 05:57:42;;;;;;;6.33;1.95;;;26.00;60.90;;;;;;1886403;76;21065;-62
2022/07/14 06:00:12;;;;;;;2.70;1.65;;;26.10;60.80;;;;;;1886304;75;21038;-62
2022/07/14 06:02:44;;;;;;;3.40;1.57;;;26.10;60.30;;;;;;1886257;75;21100;-61
2022/07/14 06:05:14;;;;;;;2.90;1.70;;;26.20;59.90;;;;;;1885892;75;21077;-61
2022/07/14 06:07:44;;;;;;;2.83;1.62;;;26.30;59.60;;;;;;1886311;76;21029;-62
2022/07/14 06:10:14;;;;;;;2.92;1.40;;;26.40;58.70;;;;;;1886252;75;21131;-61
2022/07/14 06:12:46;;;;;;;3.90;1.60;;;26.60;58.20;;;;;;1886300;76;21095;-61
2022/07/14 06:15:16;;;;;;;5.87;1.55;;;26.60;57.90;;;;;;1886318;76;21456;-61
2022/07/14 06:17:46;;;;;;;7.92;1.75;;;26.70;57.20;;;;;;1886469;76;21025;-61
2022/07/14 06:20:16;;;;;;;1.98;1.25;;;26.80;57.30;;;;;;1886373;74;21139;-61
2022/07/14 06:22:47;;;;;;;5.30;1.87;;;26.90;56.70;;;;;;1886321;76;21147;-61
2022/07/14 06:25:16;;;;;;;5.83;2.05;;;26.90;56.80;;;;;;1886184;76;21151;-61
2022/07/14 06:27:46;;;;;;;7.87;2.15;;;26.90;56.60;;;;;;1886174;76;21322;-61
2022/07/14 06:30:16;;;;;;;2.22;1.20;;;26.90;56.60;;;;;;1886388;75;21042;-61
2022/07/14 06:32:45;;;;;;;4.97;1.50;;;27.00;56.70;;;;;;1886267;76;21026;-61
2022/07/14 06:35:16;;;;;;;2.12;1.35;;;27.10;56.80;;;;;;1886295;76;21026;-61
2022/07/14 06:37:45;;;;;;;3.08;2.08;;;27.10;56.50;;;;;;1886046;76;21221;-61
2022/07/14 06:40:15;;;;;;;4.25;1.92;;;27.10;56.30;;;;;;1886446;76;21029;-61
2022/07/14 06:42:46;;;;;;;2.02;1.50;;;27.20;55.20;;;;;;1886025;75;21046;-61
2022/07/14 06:45:29;;;;;;;2.37;1.35;;;27.20;55.10;;;;;;1863613;76;21026;-61
2022/07/14 06:47:58;;;;;;;1.70;1.40;;;27.20;55.00;;;;;;1886280;76;21095;-61
2022/07/14 06:50:29;;;;;;;3.50;1.25;;;27.30;55.20;;;;;;1886328;76;21116;-61
2022/07/14 06:52:58;;;;;;;4.72;1.95;;;27.30;55.40;;;;;;1886175;76;21009;-61
2022/07/14 06:55:27;;;;;;;7.60;1.82;;;27.40;55.40;;;;;;1886174;75;21030;-61
2022/07/14 06:57:57;;;;;;;8.73;2.08;;;27.50;55.40;;;;;;1886208;76;21081;-61
2022/07/14 07:00:26;;;;;;;2.95;1.60;;;27.60;55.30;;;;;;1886155;76;21033;-61
2022/07/14 07:02:56;;;;;;;2.80;1.55;;;27.80;54.60;;;;;;1886350;76;21029;-61
2022/07/14 07:08:13;;;;;;;4.17;1.60;;;27.90;54.10;;;;;;1886459;76;21045;-61
2022/07/14 07:10:42;;;;;;;2.25;1.57;;;28.00;54.20;;;;;;1886382;75;21100;-61
2022/07/14 07:13:12;;;;;;;4.00;1.40;;;28.00;54.40;;;;;;1886407;75;21127;-61
2022/07/14 07:15:41;;;;;;;7.53;1.67;;;28.10;53.10;;;;;;1886354;76;21006;-61
2022/07/14 07:18:15;;;;;;;5.50;1.65;;;28.10;52.80;;;;;;1815945;73;21145;-61
2022/07/14 07:20:45;;;;;;;5.72;1.60;;;28.00;52.70;;;;;;1815428;78;21098;-61
2022/07/14 07:23:14;;;;;;;7.50;2.30;;;27.90;52.80;;;;;;1815427;78;21085;-62
2022/07/14 07:25:44;;;;;;;2.33;1.72;;;27.70;53.00;;;;;;1802414;79;21151;-62
2022/07/14 07:28:13;;;;;;;4.90;1.40;;;27.60;54.50;;;;;;1798695;78;21037;-61
2022/07/14 07:30:42;;;;;;;7.45;1.92;;;27.60;53.60;;;;;;1790995;78;21044;-63
2022/07/14 07:33:12;;;;;;;2.75;1.70;;;27.70;53.50;;;;;;1800558;78;21143;-63
2022/07/14 07:35:45;;;;;;;2.37;1.40;;;27.70;53.30;;;;;;1808656;79;21078;-62
2022/07/14 07:38:12;;;;;;;4.75;2.17;;;27.80;52.20;;;;;;1803775;79;21165;-62
2022/07/14 07:40:41;;;;;;;5.78;1.82;;;27.80;52.30;;;;;;1804861;79;21100;-62
2022/07/14 07:43:11;;;;;;;5.47;2.17;;;27.80;52.10;;;;;;1811851;79;21164;-62
2022/07/14 07:45:40;;;;;;;6.22;1.90;;;27.80;52.40;;;;;;1814863;78;21082;-62
2022/07/14 07:48:10;;;;;;;3.52;1.85;;;28.00;52.70;;;;;;1815011;78;21073;-62
2022/07/14 07:50:44;;;;;;;4.58;2.10;;;28.00;52.70;;;;;;1814731;78;21046;-62
2022/07/14 07:53:14;;;;;;;2.45;1.77;;;28.10;53.10;;;;;;1813861;79;21062;-62
2022/07/14 07:55:44;;;;;;;8.93;2.92;;;28.10;53.10;;;;;;1813977;79;21075;-62
2022/07/14 07:58:18;;;;;;;8.68;2.60;;;28.00;53.70;;;;;;1814943;78;21175;-62
2022/07/14 08:00:52;;;;;;;10.53;2.55;;;28.00;54.50;;;;;;1895340;72;21531;-62
2022/07/14 08:03:21;;;;;;;4.95;2.08;;;28.00;54.90;;;;;;1927141;74;21022;-62
2022/07/14 08:05:56;;;;;;;3.87;1.85;;;28.00;54.70;;;;;;1927000;73;21083;-62
2022/07/14 08:08:44;;;;;;;10.53;1.80;;;28.10;54.60;;;;;;1859600;76;21143;-62
2022/07/14 08:11:13;;;;;;;9.33;2.02;;;28.20;53.90;;;;;;1901511;75;21163;-62
2022/07/14 08:13:45;;;;;;;4.45;2.17;;;28.30;53.00;;;;;;1901323;75;21042;-62
2022/07/14 08:16:20;;;;;;;1.95;1.45;;;28.10;52.50;;;;;;1934788;72;21022;-62
2022/07/14 08:18:49;;;;;;;9.93;3.27;;;27.90;51.80;;;;;;1961078;73;21002;-62
2022/07/14 08:21:19;;;;;;;7.35;2.20;;;27.80;52.80;;;;;;1961235;73;21060;-62
2022/07/14 08:23:48;;;;;;;4.80;1.70;;;27.80;53.60;;;;;;1961152;73;20986;-62
2022/07/14 08:26:17;;;;;;;5.30;1.80;;;27.90;53.40;;;;;;1960966;73;21433;-62
2022/07/14 08:28:46;;;;;;;6.85;2.10;;;28.00;53.70;;;;;;1961103;73;21072;-62
2022/07/14 08:31:15;;;;;;;6.22;1.70;;;28.10;52.80;;;;;;1959807;72;21068;-61
2022/07/14 08:33:45;;;;;;;5.33;2.35;;;28.10;51.60;;;;;;1960954;73;21014;-62
2022/07/14 08:36:14;;;;;;;4.72;1.67;;;28.20;51.30;;;;;;1964781;72;21061;-62
2022/07/14 08:38:43;;;;;;;2.90;2.00;;;28.20;51.20;;;;;;1961091;73;21050;-61
2022/07/14 08:41:14;;;;;;;7.37;2.00;;;28.30;51.50;;;;;;1960888;73;21072;-61
2022/07/14 08:43:45;;;;;;;6.17;1.80;;;28.30;50.80;;;;;;1961038;73;21072;-61
2022/07/14 08:46:15;;;;;;;3.37;1.52;;;28.40;50.30;;;;;;1960960;73;20971;-61
2022/07/14 08:48:44;;;;;;;4.20;1.62;;;28.30;49.30;;;;;;1961351;71;21085;-64
2022/07/14 08:51:14;;;;;;;3.65;1.55;;;28.20;49.50;;;;;;1996645;72;21091;-61
2022/07/14 08:53:44;;;;;;;1.70;1.60;;;28.20;49.00;;;;;;1995007;72;21044;-64
2022/07/14 08:56:14;;;;;;;3.47;2.05;;;28.10;49.90;;;;;;1995969;71;21076;-62
2022/07/14 08:58:48;;;;;;;3.47;2.05;;;28.20;49.60;;;;;;1988507;71;21303;-63
2022/07/14 09:01:14;;;;;;;7.25;1.80;;;28.20;49.60;;;;;;1951766;72;21046;-61
2022/07/14 09:03:44;;;;;;;2.27;1.60;;;28.10;50.00;;;;;;1956338;73;21021;-60
2022/07/14 09:06:16;;;;;;;10.20;2.08;;;28.20;49.20;;;;;;1951461;73;21100;-60
2022/07/14 09:08:56;;;;;;;1.77;1.52;;;28.30;48.60;;;;;;1982733;71;21068;-64
2022/07/14 09:11:26;;;;;;;4.62;1.92;;;28.30;48.60;;;;;;1996067;71;21005;-60
2022/07/14 09:13:56;;;;;;;2.90;1.37;;;28.40;49.00;;;;;;1995915;71;21013;-60
2022/07/14 09:16:26;;;;;;;7.90;2.62;;;28.40;48.30;;;;;;1993660;71;21478;-66
2022/07/14 09:19:07;;;;;;;3.85;1.70;;;28.50;49.00;;;;;;1996088;71;21157;-62
2022/07/14 09:21:41;;;;;;;2.65;1.45;;;28.50;49.20;;;;;;1996029;72;21101;-60
2022/07/14 09:24:12;;;;;;;3.72;1.52;;;28.50;48.60;;;;;;1996352;72;21060;-61
2022/07/14 09:26:46;;;;;;;5.03;1.90;;;28.60;48.50;;;;;;1996164;71;21139;-60
2022/07/14 09:29:23;;;;;;;;;;;28.60;47.90;;;;;;1999050;71;20977;-60
2022/07/14 09:31:52;;;;;;;5.00;1.80;;;28.70;45.90;;;;;;1995491;71;20145;-64
2022/07/14 09:34:31;;;;;;;3.55;1.55;;;28.70;46.80;;;;;;1996111;71;21068;-68
2022/07/14 09:37:18;;;;;;;5.42;2.40;;;28.70;46.70;;;;;;1996172;72;21103;-66
2022/07/14 09:40:15;;;;;;;3.00;1.60;;;28.60;46.60;;;;;;1996180;72;21068;-59
2022/07/14 09:42:59;;;;;;;3.72;1.60;;;28.70;47.10;;;;;;1914165;75;21498;-60
2022/07/14 09:45:39;;;;;;;3.43;1.50;;;28.60;46.70;;;;;;1914404;75;21474;-64
2022/07/14 09:48:19;;;;;;;3.83;2.00;;;28.50;46.00;;;;;;1913318;75;21070;-64
2022/07/14 09:50:54;;;;;;;5.97;1.62;;;28.50;46.30;;;;;;1877650;76;21113;-65
2022/07/14 09:53:26;;;;;;;;;;;28.60;46.10;;;;;;1920319;75;21039;-62
2022/07/14 09:56:03;;;;;;;4.75;1.60;;;28.60;44.60;;;;;;1915578;75;20157;-62
2022/07/14 09:58:35;;;;;;;2.50;1.30;;;28.50;45.90;;;;;;1919923;75;21117;-60
2022/07/14 10:01:10;;;;;;;1.92;1.52;;;28.50;44.90;;;;;;1919861;74;21026;-61
2022/07/14 10:03:41;;;;;;;2.98;1.45;;;28.50;45.90;;;;;;1916924;75;21152;-64
2022/07/14 10:06:11;;;;;;;3.35;1.15;;;28.60;46.80;;;;;;1920617;74;21126;-63
2022/07/14 10:08:45;;;;;;;2.92;1.45;;;28.60;46.80;;;;;;1920796;75;21096;-63
2022/07/14 10:11:15;;;;;;;4.62;1.45;;;28.60;47.40;;;;;;1920916;75;21382;-67
2022/07/14 10:13:45;;;;;;;2.98;1.20;;;28.60;46.80;;;;;;1920675;75;21104;-62
2022/07/14 10:16:16;;;;;;;1.57;0.93;;;28.70;45.90;;;;;;1920991;75;21030;-63
2022/07/14 10:18:46;;;;;;;4.10;1.02;;;28.80;45.30;;;;;;1920975;75;21070;-63
2022/07/14 10:21:18;;;;;;;3.22;1.40;;;28.80;45.10;;;;;;1920763;75;21047;-61
2022/07/14 10:23:48;;;;;;;2.98;1.60;;;28.80;45.60;;;;;;1920905;75;21086;-62
2022/07/14 10:26:18;;;;;;;4.22;1.65;;;28.90;45.90;;;;;;1920922;75;21075;-63
2022/07/14 10:28:47;;;;;;;5.25;1.65;;;28.90;44.70;;;;;;1920733;75;21019;-64
2022/07/14 10:34:27;;;;;;;4.55;1.50;;;29.00;45.50;;;;;;1891989;75;21147;-60
2022/07/14 10:37:02;;;;;;;8.35;2.20;;;29.10;45.80;;;;;;1887675;74;21211;-65
2022/07/14 10:39:49;;;;;;;1.30;1.20;;;29.10;46.20;;;;;;1918626;74;21555;-68
2022/07/14 10:42:30;;;;;;;5.95;1.27;;;29.20;45.60;;;;;;1916227;74;21099;-63
2022/07/14 10:45:02;;;;;;;5.33;1.65;;;29.20;45.20;;;;;;1918237;75;21058;-66
2022/07/14 10:47:52;;;;;;;5.58;1.52;;;29.10;45.00;;;;;;1918804;75;21044;-60
2022/07/14 10:50:26;;;;;;;3.90;1.20;;;29.00;44.80;;;;;;1918577;75;20994;-64
2022/07/14 10:53:01;;;;;;;3.90;1.32;;;29.00;44.50;;;;;;1918781;75;21505;-63
2022/07/14 10:55:33;;;;;;;1.80;1.37;;;28.90;44.60;;;;;;1917597;75;21088;-65
2022/07/14 10:58:09;;;;;;;7.17;1.47;;;28.90;44.80;;;;;;1918582;75;21119;-61
2022/07/14 11:04:18;;;;;;;4.90;1.62;;;29.10;44.70;;;;;;1921471;75;21133;-64
2022/07/14 11:06:49;;;;;;;2.77;1.02;;;29.20;44.60;;;;;;1901549;75;21642;-58
2022/07/14 11:09:22;;;;;;;6.05;2.52;;;29.20;44.30;;;;;;1913643;75;21042;-57
2022/07/14 11:12:10;;;;;;;6.30;1.72;;;29.20;44.60;;;;;;1913388;74;21085;-59
2022/07/14 11:14:41;;;;;;;4.40;1.22;;;29.30;44.90;;;;;;1913440;74;21078;-59
2022/07/14 11:17:29;;;;;;;4.45;1.37;;;29.30;44.60;;;;;;1913631;75;21100;-59
2022/07/14 11:19:59;;;;;;;8.20;1.50;;;29.30;44.60;;;;;;1912805;74;21118;-65
2022/07/14 11:22:28;;;;;;;3.55;1.60;;;29.30;44.60;;;;;;1913741;75;21030;-62
2022/07/14 11:25:00;;;;;;;1.20;1.10;;;29.40;44.30;;;;;;1913353;75;21441;-62
2022/07/14 11:27:38;;;;;;;2.37;1.27;;;29.30;44.60;;;;;;1913412;75;21090;-63
2022/07/14 11:30:31;;;;;;;7.08;1.57;;;29.30;44.80;;;;;;1913251;74;21022;-66
2022/07/14 11:33:07;;;;;;;7.00;1.25;;;29.30;45.10;;;;;;1883568;75;21085;-65
2022/07/14 11:38:43;;;;;;;3.25;1.37;;;29.40;45.00;;;;;;1891335;75;21010;-66
2022/07/14 11:41:13;;;;;;;1.20;0.93;;;29.40;44.90;;;;;;1913659;75;21182;-66
2022/07/14 11:43:45;;;;;;;4.22;1.20;;;29.40;44.40;;;;;;1913505;74;21081;-69
2022/07/14 11:46:19;;;;;;;9.63;1.75;;;29.40;44.20;;;;;;1913468;75;21065;-65
2022/07/14 11:48:51;;;;;;;2.92;0.95;;;29.40;44.60;;;;;;1913399;75;21159;-66
2022/07/14 11:51:33;;;;;;;5.45;1.37;;;29.40;44.10;;;;;;1913531;75;21097;-69
2022/07/14 11:54:04;;;;;;;3.10;1.15;;;29.50;43.10;;;;;;1913163;74;21143;-69
2022/07/14 11:56:35;;;;;;;12.23;1.60;;;29.40;43.00;;;;;;1913252;74;21183;-66
2022/07/14 11:59:05;;;;;;;1.20;0.85;;;29.40;43.10;;;;;;1913516;75;21034;-63
2022/07/14 12:01:38;;;;;;;5.67;1.17;;;29.40;43.30;;;;;;1883713;75;21054;-68
2022/07/14 12:04:10;;;;;;;1.52;0.80;;;29.40;43.30;;;;;;1913514;75;21069;-64
2022/07/14 12:06:40;;;;;;;10.48;1.80;;;29.50;43.60;;;;;;1906630;75;21058;-63
2022/07/14 12:09:10;;;;;;;2.72;1.35;;;29.50;43.50;;;;;;1901228;75;21111;-66
2022/07/14 12:11:42;;;;;;;1.30;0.80;;;29.60;43.40;;;;;;1900922;75;21098;-66
2022/07/14 12:14:15;;;;;;;1.92;1.00;;;29.70;42.50;;;;;;1899752;75;21088;-66
2022/07/14 12:16:44;;;;;;;2.45;0.88;;;29.50;42.60;;;;;;1901238;75;21266;-62
2022/07/14 12:19:13;;;;;;;3.10;0.80;;;29.40;42.80;;;;;;1901186;75;21072;-60
2022/07/14 12:21:44;;;;;;;1.72;0.90;;;29.40;42.30;;;;;;1901391;75;21036;-63
2022/07/14 12:24:19;;;;;;;1.57;1.02;;;29.50;42.20;;;;;;1901208;75;21087;-62
2022/07/14 12:26:55;;;;;;;3.58;0.95;;;29.50;42.20;;;;;;1979471;72;21055;-59
2022/07/14 12:29:24;;;;;;;7.20;1.87;;;29.50;42.00;;;;;;1979206;72;21062;-60
2022/07/14 12:31:54;;;;;;;4.45;1.30;;;29.50;42.30;;;;;;1978941;72;21069;-62
2022/07/14 12:34:23;;;;;;;1.87;0.90;;;29.50;42.30;;;;;;1978823;72;21050;-61
2022/07/14 12:36:54;;;;;;;3.05;1.32;;;29.40;42.00;;;;;;1979311;72;21168;-60
2022/07/14 12:39:24;;;;;;;8.73;1.27;;;29.40;42.50;;;;;;1979165;72;21405;-60
2022/07/14 12:41:54;;;;;;;3.22;1.37;;;29.50;42.90;;;;;;1979045;72;21089;-61
2022/07/14 12:44:23;;;;;;;1.55;0.93;;;29.50;42.60;;;;;;1979027;72;21477;-60
2022/07/14 12:47:10;;;;;;;7.92;1.50;;;29.60;42.70;;;;;;1979093;72;21011;-62
2022/07/14 12:49:49;;;;;;;6.47;1.32;;;29.60;42.90;;;;;;1978913;72;21089;-61
2022/07/14 12:52:19;;;;;;;3.15;1.00;;;29.70;42.50;;;;;;1979734;72;21015;-60
2022/07/14 12:54:48;;;;;;;2.83;1.82;;;29.60;42.60;;;;;;1979659;72;21022;-59
2022/07/14 12:57:23;;;;;;;3.90;1.17;;;29.60;42.80;;;;;;1979777;72;21042;-59
2022/07/14 12:59:53;;;;;;;2.25;1.12;;;29.60;42.90;;;;;;1979857;72;21077;-60
2022/07/14 13:02:24;;;;;;;4.17;1.72;;;29.60;43.20;;;;;;1979782;72;21023;-60
2022/07/14 13:05:01;;;;;;;3.35;1.70;;;29.60;43.20;;;;;;1979528;72;21015;-60
2022/07/14 13:07:33;;;;;;;1.27;0.88;;;29.70;43.00;;;;;;1979757;72;21011;-60
2022/07/14 13:10:22;;;;;;;1.40;0.90;;;29.80;43.10;;;;;;1979342;72;21035;-61
2022/07/14 13:12:54;;;;;;;5.97;1.57;;;29.80;43.30;;;;;;1979674;72;21104;-60
2022/07/14 13:15:26;;;;;;;2.95;0.93;;;29.70;44.20;;;;;;1979670;72;21015;-60
2022/07/14 13:18:00;;;;;;;6.33;1.82;;;29.70;43.80;;;;;;1979677;72;21011;-60
2022/07/14 13:20:50;;;;;;;4.05;1.40;;;29.80;43.80;;;;;;1979643;72;21006;-60
2022/07/14 13:23:33;;;;;;;2.05;1.00;;;29.80;44.00;;;;;;1979681;72;21154;-59
2022/07/14 13:26:08;;;;;;;4.22;1.05;;;29.80;43.50;;;;;;1980007;72;21035;-60
2022/07/14 13:28:39;;;;;;;5.55;1.77;;;29.70;44.00;;;;;;1979780;72;21019;-60